createdAt,value
2017-11-07T00:02:22.904Z,68.93
2017-11-07T00:04:51.279Z,68.90
2017-11-07T00:07:19.688Z,68.88
2017-11-07T00:09:48.826Z,68.85
2017-11-07T00:12:17.204Z,68.84
2017-11-07T00:14:45.577Z,68.86
2017-11-07T00:17:13.957Z,68.90
2017-11-07T00:19:43.093Z,68.94
2017-11-07T00:22:11.465Z,68.93
2017-11-07T00:24:39.841Z,68.95
2017-11-07T00:27:08.216Z,68.97
2017-11-07T00:29:36.687Z,68.98
2017-11-07T00:32:05.056Z,69.00
2017-11-07T00:34:33.429Z,68.94
2017-11-07T00:37:02.566Z,68.95
2017-11-07T00:39:30.939Z,68.97
2017-11-07T00:41:59.306Z,68.99
2017-11-07T00:44:27.672Z,68.99
2017-11-07T00:46:56.035Z,69.00
2017-11-07T00:49:25.170Z,69.02
2017-11-07T00:51:53.544Z,68.95
2017-11-07T00:54:21.931Z,68.98
2017-11-07T00:56:50.307Z,69.00
2017-11-07T00:59:18.674Z,69.00
2017-11-07T01:01:47.047Z,68.93
2017-11-07T01:04:15.420Z,68.94
2017-11-07T01:06:43.801Z,68.97
2017-11-07T01:09:12.177Z,69.02
2017-11-07T01:11:40.555Z,69.06
2017-11-07T01:14:09.696Z,69.08
2017-11-07T01:16:38.066Z,69.12
2017-11-07T01:19:06.437Z,69.14
2017-11-07T01:21:34.798Z,69.13
2017-11-07T01:24:03.171Z,69.10
2017-11-07T01:26:31.532Z,69.12
2017-11-07T01:29:00.666Z,69.13
2017-11-07T01:31:29.028Z,69.09
2017-11-07T01:33:57.397Z,69.10
2017-11-07T01:36:26.553Z,69.14
2017-11-07T01:38:54.926Z,69.15
2017-11-07T01:41:23.296Z,69.15
2017-11-07T01:43:51.668Z,69.16
2017-11-07T01:46:20.038Z,69.12
2017-11-07T01:48:48.398Z,69.10
2017-11-07T01:51:16.766Z,69.11
2017-11-07T01:53:45.980Z,69.11
2017-11-07T01:56:14.353Z,69.08
2017-11-07T01:58:42.719Z,69.10
2017-11-07T02:01:11.859Z,69.08
2017-11-07T02:03:40.217Z,69.05
2017-11-07T02:06:08.584Z,69.08
2017-11-07T02:08:37.720Z,69.07
2017-11-07T02:11:06.094Z,69.07
2017-11-07T02:13:34.454Z,69.08
2017-11-07T02:16:02.820Z,69.09
2017-11-07T02:18:31.207Z,69.10
2017-11-07T02:20:59.576Z,69.07
2017-11-07T02:23:27.963Z,69.11
2017-11-07T02:25:56.442Z,69.18
2017-11-07T02:28:26.022Z,69.17
2017-11-07T02:30:55.258Z,69.22
2017-11-07T02:33:23.626Z,69.21
2017-11-07T02:35:52.015Z,69.22
2017-11-07T02:38:20.375Z,69.24
2017-11-07T02:40:49.508Z,69.27
2017-11-07T02:43:17.879Z,69.24
2017-11-07T02:45:46.244Z,69.27
2017-11-07T02:48:14.726Z,69.29
2017-11-07T02:50:43.095Z,69.32
2017-11-07T02:53:12.237Z,69.34
2017-11-07T02:55:40.602Z,69.32
2017-11-07T02:58:08.958Z,69.32
2017-11-07T03:00:37.343Z,69.26
2017-11-07T03:03:05.704Z,69.28
2017-11-07T03:05:34.842Z,69.25
2017-11-07T03:08:03.210Z,69.22
2017-11-07T03:10:31.587Z,69.22
2017-11-07T03:12:59.952Z,69.17
2017-11-07T03:15:28.323Z,69.15
2017-11-07T03:17:57.459Z,69.20
2017-11-07T03:20:25.832Z,69.17
2017-11-07T03:22:54.212Z,69.13
2017-11-07T03:25:22.574Z,69.12
2017-11-07T03:27:50.941Z,69.16
2017-11-07T03:30:19.310Z,69.10
2017-11-07T03:32:47.691Z,69.08
2017-11-07T03:35:16.819Z,69.12
2017-11-07T03:37:45.184Z,69.06
2017-11-07T03:40:13.563Z,69.04
2017-11-07T03:42:41.935Z,69.09
2017-11-07T03:45:10.311Z,69.12
2017-11-07T03:47:39.462Z,69.12
2017-11-07T03:50:07.829Z,69.08
2017-11-07T03:52:36.203Z,69.07
2017-11-07T03:55:04.588Z,69.11
2017-11-07T03:57:32.961Z,69.07
2017-11-07T04:00:01.331Z,69.03
2017-11-07T04:02:29.687Z,69.00
2017-11-07T04:04:58.162Z,68.99
2017-11-07T04:07:26.536Z,69.00
2017-11-07T04:09:55.675Z,69.02
2017-11-07T04:12:24.076Z,68.98
2017-11-07T04:14:52.449Z,69.04
2017-11-07T04:17:20.833Z,69.11
2017-11-07T04:19:49.199Z,69.12
2017-11-07T04:22:17.563Z,69.09
2017-11-07T04:24:45.924Z,69.08
2017-11-07T04:27:14.289Z,69.07
2017-11-07T04:29:43.431Z,69.09
2017-11-07T04:32:11.800Z,69.07
2017-11-07T04:34:40.177Z,69.07
2017-11-07T04:37:08.538Z,69.07
2017-11-07T04:39:36.914Z,69.05
2017-11-07T04:42:05.283Z,69.05
2017-11-07T04:44:34.410Z,69.08
2017-11-07T04:47:02.768Z,69.07
2017-11-07T04:49:31.132Z,69.04
2017-11-07T04:52:00.263Z,69.05
2017-11-07T04:54:28.608Z,69.04
2017-11-07T04:56:57.739Z,69.05
2017-11-07T04:59:26.094Z,69.01
2017-11-07T05:01:54.455Z,69.01
2017-11-07T05:04:23.592Z,69.06
2017-11-07T05:06:51.954Z,69.05
2017-11-07T05:09:20.324Z,69.13
2017-11-07T05:11:49.460Z,69.16
2017-11-07T05:14:17.827Z,69.08
2017-11-07T05:16:46.274Z,69.08
2017-11-07T05:19:15.406Z,69.17
2017-11-07T05:21:43.796Z,69.23
2017-11-07T05:24:12.170Z,69.25
2017-11-07T05:26:40.529Z,69.26
2017-11-07T05:29:08.891Z,69.32
2017-11-07T05:31:38.020Z,69.36
2017-11-07T05:34:06.382Z,69.41
2017-11-07T05:36:34.746Z,69.42
2017-11-07T05:39:03.959Z,69.53
2017-11-07T05:41:32.329Z,69.53
2017-11-07T05:44:00.692Z,69.56
2017-11-07T05:46:29.917Z,69.57
2017-11-07T05:48:58.291Z,69.54
2017-11-07T05:51:26.664Z,69.52
2017-11-07T05:53:55.038Z,69.53
2017-11-07T05:56:24.167Z,69.49
2017-11-07T05:58:52.522Z,69.42
2017-11-07T06:01:20.887Z,69.50
2017-11-07T06:03:50.019Z,69.50
2017-11-07T06:06:18.384Z,69.50
2017-11-07T06:08:46.752Z,69.49
2017-11-07T06:11:15.234Z,69.47
2017-11-07T06:13:43.602Z,69.45
2017-11-07T06:16:12.737Z,69.50
2017-11-07T06:18:41.108Z,69.45
2017-11-07T06:21:09.471Z,69.44
2017-11-07T06:23:37.842Z,69.41
2017-11-07T06:26:06.979Z,69.41
2017-11-07T06:28:35.351Z,69.33
2017-11-07T06:31:03.715Z,69.32
2017-11-07T06:33:32.087Z,69.28
2017-11-07T06:36:00.456Z,69.24
2017-11-07T06:38:29.588Z,69.23
2017-11-07T06:40:57.977Z,69.24
2017-11-07T06:43:26.343Z,69.25
2017-11-07T06:45:54.705Z,69.25
2017-11-07T06:48:23.072Z,69.19
2017-11-07T06:50:51.443Z,69.16
2017-11-07T06:53:20.575Z,69.17
2017-11-07T06:55:48.934Z,69.10
2017-11-07T06:58:17.303Z,69.07
2017-11-07T07:00:45.682Z,69.03
2017-11-07T07:03:14.822Z,69.03
2017-11-07T07:05:43.190Z,69.04
2017-11-07T07:08:11.542Z,69.03
2017-11-07T07:10:39.910Z,68.96
2017-11-07T07:13:09.045Z,69.02
2017-11-07T07:15:37.416Z,68.93
2017-11-07T07:18:05.778Z,68.86
2017-11-07T07:20:34.148Z,68.78
2017-11-07T07:23:03.286Z,68.73
2017-11-07T07:25:31.671Z,68.62
2017-11-07T07:28:00.041Z,68.57
2017-11-07T07:30:28.409Z,68.54
2017-11-07T07:32:56.777Z,68.40
2017-11-07T07:35:25.170Z,68.27
2017-11-07T07:37:53.531Z,68.20
2017-11-07T07:40:21.904Z,68.02
2017-11-07T07:42:50.265Z,67.83
2017-11-07T07:45:19.395Z,67.66
2017-11-07T07:47:47.764Z,67.43
2017-11-07T07:50:16.140Z,67.06
2017-11-07T07:52:44.498Z,66.75
2017-11-07T07:55:13.639Z,66.59
2017-11-07T07:57:42.002Z,66.26
2017-11-07T08:00:10.370Z,65.93
2017-11-07T08:02:39.516Z,65.64
2017-11-07T08:05:07.890Z,65.45
2017-11-07T08:07:36.272Z,64.51
2017-11-07T08:10:04.678Z,64.36
2017-11-07T08:12:33.047Z,64.30
2017-11-07T08:15:01.416Z,64.18
2017-11-07T08:17:29.794Z,63.94
2017-11-07T08:19:58.167Z,63.06
2017-11-07T08:22:26.543Z,62.77
2017-11-07T08:24:54.910Z,62.50
2017-11-07T08:27:23.281Z,62.07
2017-11-07T08:29:51.646Z,61.46
2017-11-07T08:32:20.021Z,60.78
2017-11-07T08:34:48.505Z,59.99
2017-11-07T08:37:16.884Z,59.54
2017-11-07T08:39:45.267Z,59.24
2017-11-07T08:42:13.634Z,58.98
2017-11-07T08:44:42.783Z,58.14
2017-11-07T08:47:11.160Z,58.25
2017-11-07T08:49:39.536Z,58.18
2017-11-07T08:52:07.902Z,57.64
2017-11-07T08:54:36.275Z,56.96
2017-11-07T08:57:04.658Z,56.49
2017-11-07T08:59:33.031Z,55.86
2017-11-07T09:02:01.395Z,55.54
2017-11-07T09:04:29.771Z,55.65
2017-11-07T09:06:58.152Z,55.06
2017-11-07T09:09:26.530Z,53.96
2017-11-07T09:11:54.898Z,53.00
2017-11-07T09:14:24.030Z,51.55
2017-11-07T09:16:52.395Z,51.63
2017-11-07T09:19:20.763Z,50.71
2017-11-07T09:21:49.147Z,51.55
2017-11-07T09:24:17.520Z,52.12
2017-11-07T09:26:45.901Z,51.06
2017-11-07T09:29:14.280Z,52.21
2017-11-07T09:31:42.657Z,52.07
2017-11-07T09:34:11.057Z,52.00
2017-11-07T09:36:39.458Z,51.56
2017-11-07T09:39:08.606Z,52.09
2017-11-07T09:41:37.783Z,51.83
2017-11-07T09:44:06.934Z,51.41
2017-11-07T09:46:35.311Z,51.29
2017-11-07T09:49:03.720Z,51.16
2017-11-07T09:51:32.104Z,51.28
2017-11-07T09:54:00.504Z,52.15
2017-11-07T09:56:29.650Z,52.18
2017-11-07T09:58:58.031Z,51.65
2017-11-07T10:01:26.441Z,50.60
2017-11-07T10:03:54.814Z,49.99
2017-11-07T10:06:23.182Z,49.88
2017-11-07T10:08:51.552Z,49.95
2017-11-07T10:11:19.942Z,49.42
2017-11-07T10:13:48.306Z,49.87
2017-11-07T10:16:16.679Z,49.49
2017-11-07T10:18:45.052Z,49.68
2017-11-07T10:21:13.443Z,49.91
2017-11-07T10:23:41.817Z,50.47
2017-11-07T10:26:10.183Z,50.75
2017-11-07T10:28:38.576Z,51.06
2017-11-07T10:31:06.947Z,50.80
2017-11-07T10:33:35.316Z,51.14
2017-11-07T10:36:03.683Z,51.16
2017-11-07T10:38:32.819Z,51.93
2017-11-07T10:41:01.198Z,52.45
2017-11-07T10:43:29.567Z,52.40
2017-11-07T10:45:58.624Z,52.62
2017-11-07T10:48:27.764Z,52.87
2017-11-07T10:50:56.701Z,53.06
2017-11-07T10:53:25.110Z,53.23
2017-11-07T10:55:53.510Z,53.63
2017-11-07T10:58:21.907Z,53.06
2017-11-07T11:00:50.305Z,53.19
2017-11-07T11:03:18.704Z,54.81
2017-11-07T11:05:47.083Z,54.35
2017-11-07T11:08:16.219Z,53.78
2017-11-07T11:10:44.581Z,54.00
2017-11-07T11:13:13.718Z,53.80
2017-11-07T11:15:42.088Z,54.14
2017-11-07T11:18:10.543Z,53.99
2017-11-07T11:20:38.918Z,53.82
2017-11-07T11:23:07.291Z,53.98
2017-11-07T11:25:36.456Z,53.93
2017-11-07T11:28:04.855Z,53.84
2017-11-07T11:30:34.046Z,54.10
2017-11-07T11:33:02.457Z,54.44
2017-11-07T11:35:30.857Z,54.71
2017-11-07T11:37:59.357Z,54.90
2017-11-07T11:40:27.786Z,54.90
2017-11-07T11:42:56.950Z,55.07
2017-11-07T11:45:25.347Z,55.05
2017-11-07T11:47:53.748Z,55.10
2017-11-07T11:50:22.912Z,55.16
2017-11-07T11:52:51.308Z,55.04
2017-11-07T11:55:20.570Z,54.92
2017-11-07T11:57:48.952Z,55.00
2017-11-07T12:00:17.328Z,54.88
2017-11-07T12:02:45.703Z,54.58
2017-11-07T12:05:14.100Z,54.92
2017-11-07T12:07:42.472Z,55.07
2017-11-07T12:10:10.839Z,54.95
2017-11-07T12:12:39.207Z,55.29
2017-11-07T12:15:07.580Z,55.23
2017-11-07T12:17:35.946Z,55.22
2017-11-07T12:20:04.324Z,54.68
2017-11-07T12:22:32.689Z,54.92
2017-11-07T12:25:01.822Z,54.88
2017-11-07T12:27:30.220Z,54.74
2017-11-07T12:29:58.629Z,54.37
2017-11-07T12:32:27.231Z,54.45
2017-11-07T12:34:56.366Z,54.20
2017-11-07T12:37:24.752Z,54.14
2017-11-07T12:39:53.124Z,54.03
2017-11-07T12:42:21.482Z,54.16
2017-11-07T12:44:49.855Z,54.54
2017-11-07T12:47:18.991Z,54.75
2017-11-07T12:49:47.366Z,54.49
2017-11-07T12:52:15.740Z,54.82
2017-11-07T12:54:44.103Z,54.78
2017-11-07T12:57:12.470Z,55.12
2017-11-07T12:59:40.847Z,55.29
2017-11-07T13:02:09.219Z,55.13
2017-11-07T13:04:38.351Z,55.28
2017-11-07T13:07:06.717Z,54.95
2017-11-07T13:09:35.131Z,55.06
2017-11-07T13:12:03.503Z,54.97
2017-11-07T13:14:31.895Z,54.82
2017-11-07T13:17:00.278Z,55.02
2017-11-07T13:19:28.652Z,56.50
2017-11-07T13:21:57.021Z,55.60
2017-11-07T13:24:25.394Z,55.58
2017-11-07T13:26:53.768Z,55.45
2017-11-07T13:29:22.131Z,55.46
2017-11-07T13:31:50.498Z,55.54
2017-11-07T13:34:18.870Z,55.71
2017-11-07T13:36:48.069Z,55.87
2017-11-07T13:39:16.498Z,55.89
2017-11-07T13:41:44.872Z,55.84
2017-11-07T13:44:13.251Z,55.96
2017-11-07T13:46:41.653Z,56.03
2017-11-07T13:49:10.924Z,56.39
2017-11-07T13:51:39.309Z,56.29
2017-11-07T13:54:07.684Z,56.41
2017-11-07T13:56:36.121Z,56.52
2017-11-07T13:59:05.358Z,56.48
2017-11-07T14:01:33.777Z,56.79
2017-11-07T14:04:02.938Z,56.72
2017-11-07T14:06:31.315Z,56.92
2017-11-07T14:08:59.686Z,57.01
2017-11-07T14:11:28.055Z,57.14
2017-11-07T14:13:56.427Z,57.21
2017-11-07T14:16:24.857Z,57.39
2017-11-07T14:18:53.238Z,57.32
2017-11-07T14:21:21.657Z,57.36
2017-11-07T14:23:50.064Z,57.42
2017-11-07T14:26:18.447Z,57.53
2017-11-07T14:28:46.828Z,57.56
2017-11-07T14:31:15.195Z,57.97
2017-11-07T14:33:44.484Z,57.78
2017-11-07T14:36:12.869Z,57.86
2017-11-07T14:38:41.243Z,58.10
2017-11-07T14:41:09.632Z,58.10
2017-11-07T14:43:38.006Z,58.13
2017-11-07T14:46:06.376Z,58.01
2017-11-07T14:48:34.754Z,58.00
2017-11-07T14:53:31.467Z,58.96
2017-11-07T14:55:59.839Z,58.67
2017-11-07T14:58:28.210Z,58.45
2017-11-07T15:00:56.593Z,58.42
2017-11-07T15:03:24.957Z,58.48
2017-11-07T15:05:53.324Z,58.51
2017-11-07T15:08:21.714Z,58.52
2017-11-07T15:10:50.079Z,58.64
2017-11-07T15:13:18.510Z,58.71
2017-11-07T15:15:49.263Z,58.88
2017-11-07T15:18:18.394Z,60.43
2017-11-07T15:20:46.793Z,59.74
2017-11-07T15:23:15.168Z,59.46
2017-11-07T15:25:43.545Z,59.31
2017-11-07T15:28:11.958Z,59.37
2017-11-07T15:30:40.354Z,59.35
2017-11-07T15:33:09.501Z,59.47
2017-11-07T15:35:37.874Z,59.42
2017-11-07T15:38:06.237Z,59.39
2017-11-07T15:40:34.611Z,59.60
2017-11-07T15:43:03.804Z,59.62
2017-11-07T15:45:32.966Z,59.76
2017-11-07T15:48:01.331Z,59.67
2017-11-07T15:50:29.707Z,59.80
2017-11-07T15:52:58.087Z,59.84
2017-11-07T15:55:26.470Z,59.81
2017-11-07T15:57:54.880Z,59.85
2017-11-07T16:00:24.029Z,59.87
2017-11-07T16:02:52.381Z,60.01
2017-11-07T16:05:20.751Z,59.98
2017-11-07T16:07:49.888Z,60.01
2017-11-07T16:10:18.274Z,60.00
2017-11-07T16:12:46.649Z,60.08
2017-11-07T16:15:15.024Z,60.27
2017-11-07T16:17:43.403Z,60.29
2017-11-07T16:20:11.774Z,60.33
2017-11-07T16:22:40.145Z,60.33
2017-11-07T16:25:08.514Z,60.44
2017-11-07T16:27:36.891Z,60.47
2017-11-07T16:30:05.271Z,60.56
2017-11-07T16:32:33.646Z,60.67
2017-11-07T16:35:02.782Z,60.71
2017-11-07T16:37:31.166Z,60.62
2017-11-07T16:39:59.548Z,60.69
2017-11-07T16:42:30.738Z,60.64
2017-11-07T16:44:59.189Z,60.71
2017-11-07T16:47:27.894Z,60.90
2017-11-07T16:49:56.264Z,60.80
2017-11-07T16:52:24.747Z,60.87
2017-11-07T16:54:53.193Z,60.98
2017-11-07T16:57:21.582Z,60.96
2017-11-07T16:59:49.973Z,60.95
2017-11-07T17:02:18.357Z,60.96
2017-11-07T17:04:46.725Z,61.12
2017-11-07T17:07:15.096Z,61.02
2017-11-07T17:09:43.475Z,61.11
2017-11-07T17:12:11.851Z,61.31
2017-11-07T17:14:42.064Z,61.16
2017-11-07T17:17:11.981Z,61.19
2017-11-07T17:19:41.195Z,61.06
2017-11-07T17:22:09.589Z,61.17
2017-11-07T17:24:38.015Z,61.36
2017-11-07T17:27:06.393Z,61.45
2017-11-07T17:29:34.789Z,61.45
2017-11-07T17:32:03.158Z,61.59
2017-11-07T17:34:31.550Z,61.54
2017-11-07T17:36:59.922Z,61.64
2017-11-07T17:39:28.315Z,61.76
2017-11-07T17:41:56.687Z,61.75
2017-11-07T17:44:25.055Z,61.69
2017-11-07T17:46:53.429Z,61.81
2017-11-07T17:49:23.723Z,61.83
2017-11-07T17:51:52.878Z,61.91
2017-11-07T17:54:21.268Z,62.00
2017-11-07T17:56:49.638Z,61.94
2017-11-07T17:59:18.011Z,62.04
2017-11-07T18:01:46.378Z,61.96
2017-11-07T18:04:14.746Z,62.02
2017-11-07T18:06:43.121Z,61.93
2017-11-07T18:09:11.490Z,62.07
2017-11-07T18:11:40.628Z,62.07
2017-11-07T18:14:09.002Z,62.23
2017-11-07T18:16:37.377Z,62.25
2017-11-07T18:19:05.744Z,62.24
2017-11-07T18:21:34.139Z,62.19
2017-11-07T18:24:02.517Z,62.39
2017-11-07T18:26:30.898Z,62.39
2017-11-07T18:28:59.261Z,62.55
2017-11-07T18:31:27.634Z,62.47
2017-11-07T18:33:56.009Z,62.52
2017-11-07T18:36:24.400Z,62.49
2017-11-07T18:38:52.774Z,62.49
2017-11-07T18:41:21.164Z,62.56
2017-11-07T18:43:49.555Z,62.68
2017-11-07T18:46:17.934Z,62.71
2017-11-07T18:48:46.323Z,62.90
2017-11-07T18:51:14.698Z,62.81
2017-11-07T18:53:43.099Z,62.84
2017-11-07T18:56:11.471Z,62.95
2017-11-07T18:58:39.848Z,63.00
2017-11-07T19:01:08.223Z,62.97
2017-11-07T19:03:36.604Z,63.01
2017-11-07T19:06:04.983Z,63.13
2017-11-07T19:08:33.362Z,63.14
2017-11-07T19:11:01.735Z,63.15
2017-11-07T19:13:30.102Z,63.15
2017-11-07T19:15:58.477Z,63.25
2017-11-07T19:18:26.859Z,63.32
2017-11-07T19:20:55.297Z,63.35
2017-11-07T19:23:24.452Z,63.40
2017-11-07T19:25:52.843Z,63.40
2017-11-07T19:28:26.457Z,63.44
2017-11-07T19:30:57.070Z,63.35
2017-11-07T19:33:26.305Z,63.37
2017-11-07T19:35:55.817Z,63.31
2017-11-07T19:38:24.225Z,63.44
2017-11-07T19:40:52.600Z,63.55
2017-11-07T19:43:20.971Z,63.59
2017-11-07T19:45:49.382Z,63.68
2017-11-07T19:48:17.768Z,63.80
2017-11-07T19:50:47.588Z,63.78
2017-11-07T19:53:15.984Z,63.77
2017-11-07T19:55:44.354Z,63.84
2017-11-07T19:58:12.734Z,63.94
2017-11-07T20:00:41.119Z,63.94
2017-11-07T20:03:09.491Z,63.97
2017-11-07T20:05:37.869Z,64.14
2017-11-07T20:08:06.243Z,64.21
2017-11-07T20:10:34.614Z,64.23
2017-11-07T20:13:02.995Z,64.30
2017-11-07T20:15:31.375Z,64.40
2017-11-07T20:17:59.770Z,64.47
2017-11-07T20:20:28.244Z,66.41
2017-11-07T20:22:57.434Z,65.40
2017-11-07T20:25:25.816Z,65.10
2017-11-07T20:27:54.197Z,64.94
2017-11-07T20:30:22.580Z,64.95
2017-11-07T20:32:50.954Z,64.91
2017-11-07T20:35:19.347Z,64.87
2017-11-07T20:37:47.728Z,65.74
2017-11-07T20:40:16.144Z,65.19
2017-11-07T20:42:45.303Z,65.14
2017-11-07T20:45:13.697Z,65.13
2017-11-07T20:47:42.878Z,65.08
2017-11-07T20:50:11.253Z,65.08
2017-11-07T20:52:39.696Z,65.05
2017-11-07T20:55:08.089Z,65.08
2017-11-07T20:57:36.468Z,65.18
2017-11-07T21:00:04.848Z,65.21
2017-11-07T21:02:33.229Z,65.27
2017-11-07T21:05:01.618Z,65.30
2017-11-07T21:07:30.005Z,65.28
2017-11-07T21:09:58.399Z,65.30
2017-11-07T21:12:26.778Z,65.36
2017-11-07T21:14:56.675Z,65.45
2017-11-07T21:17:25.080Z,65.34
2017-11-07T21:19:53.464Z,65.27
2017-11-07T21:22:22.615Z,65.38
2017-11-07T21:24:50.994Z,65.46
2017-11-07T21:27:19.359Z,65.48
2017-11-07T21:29:47.751Z,65.40
2017-11-07T21:32:16.138Z,65.48
2017-11-07T21:34:47.342Z,65.43
2017-11-07T21:37:16.508Z,65.53
2017-11-07T21:39:44.899Z,65.45
2017-11-07T21:42:13.323Z,65.48
2017-11-07T21:44:41.735Z,65.47
2017-11-07T21:47:10.115Z,65.54
2017-11-07T21:49:38.496Z,65.52
2017-11-07T21:52:06.878Z,65.53
2017-11-07T21:54:35.252Z,65.57
2017-11-07T21:57:03.622Z,65.65
2017-11-07T21:59:31.994Z,65.66
2017-11-07T22:02:00.365Z,65.64
2017-11-07T22:04:28.744Z,65.75
2017-11-07T22:06:57.104Z,65.70
2017-11-07T22:09:25.506Z,65.81
2017-11-07T22:11:55.662Z,65.79
2017-11-07T22:14:24.043Z,65.81
2017-11-07T22:16:54.231Z,65.84
2017-11-07T22:19:22.603Z,65.90
2017-11-07T22:21:50.982Z,65.93
2017-11-07T22:24:19.352Z,65.90
2017-11-07T22:26:50.705Z,65.99
2017-11-07T22:29:19.072Z,65.98
2017-11-07T22:31:47.448Z,66.02
2017-11-07T22:34:15.826Z,66.04
2017-11-07T22:36:44.976Z,66.02
2017-11-07T22:39:13.355Z,65.90
2017-11-07T22:41:41.859Z,65.94
2017-11-07T22:44:10.239Z,65.96
2017-11-07T22:46:39.389Z,65.99
2017-11-07T22:49:08.484Z,66.07
2017-11-07T22:51:36.935Z,66.15
2017-11-07T22:54:05.334Z,66.12
2017-11-07T22:56:33.712Z,66.04
2017-11-07T22:59:02.083Z,66.13
2017-11-07T23:01:30.505Z,66.13
2017-11-07T23:03:58.882Z,66.13
2017-11-07T23:06:27.823Z,66.15
2017-11-07T23:08:56.963Z,66.25
2017-11-07T23:11:25.350Z,66.31
2017-11-07T23:13:53.731Z,66.23
2017-11-07T23:16:22.111Z,66.30
2017-11-07T23:18:50.492Z,66.28
2017-11-07T23:21:18.882Z,66.24
2017-11-07T23:23:47.271Z,66.27
2017-11-07T23:26:15.648Z,66.39
2017-11-07T23:28:44.032Z,66.43
2017-11-07T23:31:13.920Z,66.64
2017-11-07T23:33:43.144Z,66.67
2017-11-07T23:36:11.523Z,66.71
2017-11-07T23:38:39.903Z,66.73
2017-11-07T23:41:08.272Z,66.74
2017-11-07T23:43:37.419Z,66.75
2017-11-07T23:46:05.801Z,66.73
2017-11-07T23:48:34.171Z,66.78
2017-11-07T23:51:02.548Z,66.84
2017-11-07T23:53:30.926Z,66.83
2017-11-07T23:55:59.307Z,66.89
2017-11-07T23:58:30.478Z,66.98
